Time;durP1;ratioP1;P1;durP2;ratioP2;P2;SDS_P1;SDS_P2;PMS_P1;PMS_P2;Temp;Humidity;BMP_temperature;BMP_pressure;BME280_temperature;BME280_humidity;BME280_pressure;Samples;Min_cycle;Max_cycle;Signal;HPM_P1;HPM_P2
2024/01/22 00:01:02;;;;;;;46.70;41.92;;;12.70;99.90;;;;;;5064927;28;20139;-69
2024/01/22 00:03:27;;;;;;;47.65;41.28;;;12.30;99.90;;;;;;5060300;28;20037;-69
2024/01/22 00:05:53;;;;;;;43.45;38.95;;;12.40;99.90;;;;;;5064297;28;20044;-69
2024/01/22 00:08:20;;;;;;;46.40;39.70;;;12.80;99.90;;;;;;5050038;28;20544;-69
2024/01/22 00:10:45;;;;;;;48.03;43.00;;;12.80;99.90;;;;;;5050319;28;20048;-69
2024/01/22 00:13:11;;;;;;;43.60;37.75;;;12.60;99.90;;;;;;5057246;28;20410;-69
2024/01/22 00:15:37;;;;;;;51.05;45.72;;;13.00;99.90;;;;;;5064319;28;20124;-69
2024/01/22 00:18:03;;;;;;;63.03;56.70;;;12.60;99.90;;;;;;5050282;28;20036;-69
2024/01/22 00:20:28;;;;;;;42.28;37.92;;;13.20;99.90;;;;;;5067948;28;20052;-69
2024/01/22 00:22:54;;;;;;;41.45;37.00;;;13.20;99.90;;;;;;5050025;28;20071;-69
2024/01/22 00:25:19;;;;;;;40.58;36.13;;;12.60;99.90;;;;;;5068754;28;20453;-69
2024/01/22 00:27:45;;;;;;;42.55;38.05;;;13.00;99.90;;;;;;5063695;28;20453;-69
2024/01/22 00:30:10;;;;;;;41.15;36.83;;;12.80;99.90;;;;;;5032486;28;20095;-69
2024/01/22 00:32:36;;;;;;;46.90;42.00;;;12.50;99.90;;;;;;5067491;28;20041;-69
2024/01/22 00:35:02;;;;;;;43.40;39.03;;;13.00;1.00;;;;;;5067706;28;20052;-69
2024/01/22 00:37:27;;;;;;;52.97;46.47;;;13.00;1.00;;;;;;5048652;28;20048;-69
2024/01/22 00:39:56;;;;;;;53.42;47.92;;;13.10;1.00;;;;;;5066674;28;20453;-69
2024/01/22 00:42:22;;;;;;;45.08;40.05;;;13.10;1.00;;;;;;5049188;28;20405;-69
2024/01/22 00:44:48;;;;;;;46.03;40.38;;;12.40;1.00;;;;;;5049363;28;20041;-67
2024/01/22 00:47:13;;;;;;;45.10;38.47;;;13.10;1.00;;;;;;5066960;28;20044;-67
2024/01/22 00:49:39;;;;;;;46.85;41.35;;;12.60;33.70;;;;;;5048273;28;20585;-70
2024/01/22 00:52:04;;;;;;;41.80;37.45;;;13.20;41.70;;;;;;5044277;28;20032;-67
2024/01/22 00:54:30;;;;;;;46.20;41.72;;;12.50;37.60;;;;;;5048553;28;20059;-66
2024/01/22 00:56:56;;;;;;;54.08;48.50;;;13.10;36.60;;;;;;5048805;28;20045;-67
2024/01/22 00:59:22;;;;;;;51.33;46.22;;;13.80;91.60;;;;;;5048326;28;20048;-66
2024/01/22 01:01:48;;;;;;;45.22;40.85;;;13.20;99.90;;;;;;5048468;28;20044;-68
2024/01/22 01:04:13;;;;;;;46.45;41.78;;;12.50;99.90;;;;;;5059228;28;20049;-66
2024/01/22 01:06:39;;;;;;;46.50;41.40;;;12.50;99.90;;;;;;5037379;28;20048;-67
2024/01/22 01:09:05;;;;;;;45.05;40.55;;;13.20;99.90;;;;;;5048664;28;20044;-67
2024/01/22 01:11:31;;;;;;;46.33;41.72;;;12.80;99.90;;;;;;5048508;28;20394;-67
2024/01/22 01:13:56;;;;;;;54.92;48.97;;;12.70;99.90;;;;;;5048274;28;20144;-68
2024/01/22 01:16:22;;;;;;;44.35;39.80;;;12.90;99.90;;;;;;5064070;28;20735;-67
2024/01/22 01:18:48;;;;;;;45.30;40.58;;;12.60;99.90;;;;;;5048009;28;20555;-68
2024/01/22 01:21:13;;;;;;;53.10;42.83;;;13.10;99.90;;;;;;5067940;28;20561;-66
2024/01/22 01:23:39;;;;;;;57.13;51.17;;;12.60;99.90;;;;;;5046133;28;20505;-67
2024/01/22 01:26:04;;;;;;;58.38;52.35;;;12.70;99.90;;;;;;5055191;28;20043;-67
2024/01/22 01:28:30;;;;;;;49.97;44.85;;;13.50;99.90;;;;;;5065903;28;20122;-67
2024/01/22 01:30:56;;;;;;;46.17;41.40;;;12.80;99.90;;;;;;5066167;28;20033;-68
2024/01/22 01:33:21;;;;;;;54.67;49.08;;;12.80;99.90;;;;;;5031326;28;20126;-67
2024/01/22 01:35:47;;;;;;;46.22;41.33;;;13.10;99.90;;;;;;5065971;28;20047;-67
2024/01/22 01:38:12;;;;;;;46.35;41.42;;;13.00;99.90;;;;;;5065877;28;20048;-69
2024/01/22 01:40:41;;;;;;;56.88;51.22;;;12.80;99.90;;;;;;5047460;28;20497;-67
2024/01/22 01:43:07;;;;;;;48.67;43.47;;;13.40;99.90;;;;;;5066228;28;20048;-67
2024/01/22 01:45:32;;;;;;;50.50;45.13;;;13.50;99.90;;;;;;5066113;28;20044;-66
2024/01/22 01:47:58;;;;;;;54.10;48.47;;;13.00;99.90;;;;;;5048189;28;20112;-67
2024/01/22 01:50:23;;;;;;;52.63;47.00;;;13.60;99.90;;;;;;5047546;28;20122;-66
2024/01/22 01:52:50;;;;;;;49.65;44.40;;;13.60;99.90;;;;;;5047328;28;20040;-67
2024/01/22 01:55:16;;;;;;;54.88;49.28;;;13.30;99.90;;;;;;5066364;28;20054;-67
2024/01/22 01:57:42;;;;;;;53.88;48.30;;;13.70;99.90;;;;;;5029388;28;20043;-66
2024/01/22 02:00:12;;;;;;;57.40;51.30;;;13.00;99.90;;;;;;5065180;28;20417;-68
2024/01/22 02:02:41;;;;;;;51.75;46.40;;;13.80;99.90;;;;;;5047524;28;20044;-67
2024/01/22 02:05:07;;;;;;;54.08;48.47;;;13.30;99.90;;;;;;5047391;28;20122;-67
2024/01/22 02:07:33;;;;;;;44.45;40.00;;;14.10;99.90;;;;;;5046606;28;20052;-66
2024/01/22 02:09:59;;;;;;;46.25;40.45;;;13.20;99.90;;;;;;5047542;28;20052;-66
2024/01/22 02:12:25;;;;;;;46.47;41.42;;;13.20;99.90;;;;;;5047912;28;20079;-69
2024/01/22 02:14:50;;;;;;;55.03;49.20;;;13.50;99.90;;;;;;5048818;28;20055;-67
2024/01/22 02:17:16;;;;;;;49.35;44.05;;;13.60;99.90;;;;;;5065188;28;20387;-67
2024/01/22 02:19:42;;;;;;;51.25;45.85;;;13.40;74.50;;;;;;5045821;28;20036;-67
2024/01/22 02:22:08;;;;;;;54.80;49.30;;;13.40;56.90;;;;;;5065233;28;20127;-66
2024/01/22 02:24:34;;;;;;;58.13;52.08;;;13.30;64.70;;;;;;5065166;28;20106;-67
2024/01/22 02:27:00;;;;;;;52.67;47.30;;;13.30;5.80;;;;;;5064484;28;20098;-66
2024/01/22 02:29:25;;;;;;;55.65;50.08;;;14.10;11.10;;;;;;5048703;28;20659;-66
2024/01/22 02:31:52;;;;;;;50.30;45.03;;;14.10;1.00;;;;;;5046962;28;20036;-66
2024/01/22 02:34:19;;;;;;;46.30;41.60;;;13.50;1.00;;;;;;5061906;28;20044;-67
2024/01/22 02:36:45;;;;;;;49.42;44.42;;;13.90;1.00;;;;;;5043246;28;20160;-66
2024/01/22 02:39:11;;;;;;;46.35;41.33;;;13.70;1.00;;;;;;5045268;28;20723;-67
2024/01/22 02:41:38;;;;;;;52.15;46.47;;;13.50;1.00;;;;;;5043414;28;20518;-67
2024/01/22 02:44:03;;;;;;;60.92;54.97;;;13.50;1.00;;;;;;5043521;28;20383;-65
2024/01/22 02:46:29;;;;;;;52.03;46.60;;;14.00;1.00;;;;;;5044970;28;20052;-67
2024/01/22 02:48:55;;;;;;;47.30;42.40;;;14.40;1.00;;;;;;5045182;28;20040;-66
2024/01/22 02:51:20;;;;;;;53.97;48.22;;;13.70;1.00;;;;;;5042185;28;20069;-65
2024/01/22 02:53:47;;;;;;;57.35;51.63;;;13.60;1.00;;;;;;5039433;28;20087;-66
2024/01/22 02:56:17;;;;;;;54.33;48.72;;;13.80;1.00;;;;;;5043172;28;20535;-67
2024/01/22 02:58:43;;;;;;;52.63;47.30;;;14.00;96.10;;;;;;5044639;28;20047;-66
2024/01/22 03:01:08;;;;;;;53.92;48.15;;;13.50;99.90;;;;;;5042754;28;20406;-66
2024/01/22 03:03:34;;;;;;;45.28;40.45;;;13.80;99.90;;;;;;5044120;28;20072;-66
2024/01/22 03:06:00;;;;;;;53.03;47.63;;;13.60;99.90;;;;;;5043983;28;20342;-69
2024/01/22 03:08:25;;;;;;;47.72;42.75;;;14.30;1.00;;;;;;5044906;28;20041;-70
2024/01/22 03:10:51;;;;;;;43.58;38.97;;;13.50;1.00;;;;;;5027081;28;20048;-70
2024/01/22 03:13:16;;;;;;;52.65;47.55;;;13.70;1.00;;;;;;5044107;28;20102;-70
2024/01/22 03:15:42;;;;;;;49.67;44.75;;;14.40;1.00;;;;;;5036043;28;20033;-70
2024/01/22 03:18:08;;;;;;;49.15;43.67;;;14.30;98.50;;;;;;5043601;28;20479;-70
2024/01/22 03:20:34;;;;;;;52.60;47.17;;;14.30;99.90;;;;;;5043834;28;20126;-70
2024/01/22 03:22:59;;;;;;;64.80;58.33;;;13.90;99.90;;;;;;5025205;28;20045;-70
2024/01/22 03:25:25;;;;;;;57.15;51.55;;;15.60;99.90;;;;;;5024255;28;20575;-70
2024/01/22 03:27:50;;;;;;;61.58;55.38;;;14.60;99.90;;;;;;5019746;28;20045;-70
2024/01/22 03:30:16;;;;;;;61.38;55.35;;;14.20;99.90;;;;;;5043110;28;20048;-70
2024/01/22 03:32:42;;;;;;;54.00;48.63;;;14.20;99.90;;;;;;5042933;28;20044;-70
2024/01/22 03:35:07;;;;;;;55.15;49.63;;;14.60;99.90;;;;;;5060223;28;20674;-70
2024/01/22 03:37:33;;;;;;;61.40;55.55;;;14.60;99.90;;;;;;5074435;28;20580;-70
2024/01/22 03:39:59;;;;;;;58.60;52.80;;;14.50;99.90;;;;;;5051849;28;20123;-70
2024/01/22 03:42:25;;;;;;;53.58;48.45;;;15.20;43.90;;;;;;5030598;28;20426;-70
2024/01/22 03:44:52;;;;;;;61.78;55.88;;;14.90;1.00;;;;;;5030926;28;20049;-70
2024/01/22 03:47:17;;;;;;;61.00;55.15;;;14.60;1.00;;;;;;5053293;28;20511;-70
2024/01/22 03:49:43;;;;;;;66.03;59.50;;;15.60;99.90;;;;;;5049327;28;20131;-70
2024/01/22 03:52:09;;;;;;;55.92;50.50;;;15.50;99.90;;;;;;5045702;28;20099;-70
2024/01/22 03:54:34;;;;;;;60.63;54.72;;;15.70;99.90;;;;;;5050770;28;20040;-70
2024/01/22 03:57:07;;;;;;;54.53;49.15;;;15.80;99.90;;;;;;5050882;28;20052;-70
2024/01/22 03:59:34;;;;;;;51.60;46.50;;;15.50;66.60;;;;;;5033382;28;20134;-70
2024/01/22 04:02:00;;;;;;;54.70;49.40;;;16.00;19.90;;;;;;5050235;28;20135;-70
2024/01/22 04:04:25;;;;;;;73.85;66.90;;;16.00;1.00;;;;;;5033993;28;20128;-70
2024/01/22 04:06:51;;;;;;;62.22;56.13;;;15.90;8.10;;;;;;5030360;28;20127;-71
2024/01/22 04:09:16;;;;;;;59.55;53.60;;;15.40;1.00;;;;;;5061762;28;20550;-70
2024/01/22 04:11:42;;;;;;;53.13;47.97;;;15.60;1.00;;;;;;5050099;28;20417;-70
2024/01/22 04:14:07;;;;;;;64.85;58.75;;;15.00;1.00;;;;;;5050426;28;20044;-70
2024/01/22 04:16:33;;;;;;;57.78;52.08;;;15.80;44.80;;;;;;5047751;28;20453;-70
2024/01/22 04:18:58;;;;;;;62.95;57.10;;;15.70;99.90;;;;;;5050231;28;20894;-70
2024/01/22 04:21:24;;;;;;;72.18;65.53;;;16.00;99.90;;;;;;5068186;28;20037;-70
2024/01/22 04:23:49;;;;;;;53.60;48.50;;;15.10;99.90;;;;;;5063928;28;20036;-70
2024/01/22 04:26:15;;;;;;;51.78;46.78;;;15.20;99.90;;;;;;5048112;28;20307;-70
2024/01/22 04:28:41;;;;;;;52.20;47.20;;;15.70;99.90;;;;;;5039271;28;20040;-70
2024/01/22 04:31:06;;;;;;;53.10;48.00;;;15.30;99.90;;;;;;5059400;28;20043;-70
2024/01/22 04:33:32;;;;;;;55.45;50.22;;;15.00;99.90;;;;;;5065957;28;20044;-70
2024/01/22 04:35:58;;;;;;;65.00;58.95;;;15.50;99.90;;;;;;5061474;28;20072;-70
2024/01/22 04:38:25;;;;;;;60.33;54.78;;;15.70;99.90;;;;;;5054946;28;20518;-70
2024/01/22 04:40:51;;;;;;;59.30;53.78;;;16.20;99.90;;;;;;5013747;28;20064;-72
2024/01/22 04:43:21;;;;;;;63.47;57.47;;;15.40;99.90;;;;;;5029673;28;20041;-71
2024/01/22 04:45:47;;;;;;;61.13;55.45;;;16.40;99.90;;;;;;5013330;28;20052;-71
2024/01/22 04:48:12;;;;;;;60.17;54.63;;;15.50;99.90;;;;;;5029425;28;20045;-72
2024/01/22 04:50:38;;;;;;;61.15;55.28;;;16.40;99.90;;;;;;5043361;28;20591;-71
2024/01/22 04:53:04;;;;;;;63.38;57.13;;;16.30;99.90;;;;;;5042213;28;20490;-71
2024/01/22 04:55:30;;;;;;;64.45;57.95;;;16.30;99.90;;;;;;5066110;28;20084;-70
2024/01/22 04:57:55;;;;;;;52.42;47.47;;;15.70;1.00;;;;;;5067532;28;20497;-70
2024/01/22 05:00:21;;;;;;;55.60;50.17;;;15.30;1.00;;;;;;5066152;28;20040;-71
2024/01/22 05:02:47;;;;;;;68.65;62.10;;;16.10;1.00;;;;;;5066869;28;20063;-72
2024/01/22 05:05:13;;;;;;;75.88;68.57;;;16.30;99.90;;;;;;5049116;28;20037;-71
2024/01/22 05:07:39;;;;;;;58.15;52.42;;;15.30;99.90;;;;;;5052620;28;20366;-71
2024/01/22 05:10:06;;;;;;;78.15;70.88;;;15.00;99.90;;;;;;5065812;28;20072;-71
2024/01/22 05:12:31;;;;;;;63.80;57.13;;;15.70;99.90;;;;;;5067378;28;20090;-71
2024/01/22 05:14:57;;;;;;;69.20;62.22;;;14.90;99.90;;;;;;5065880;28;20048;-71
2024/01/22 05:17:23;;;;;;;65.53;58.63;;;15.40;99.90;;;;;;5048941;28;20079;-70
2024/01/22 05:19:49;;;;;;;57.95;51.67;;;14.90;99.90;;;;;;5049064;28;20106;-70
2024/01/22 05:22:15;;;;;;;74.05;65.82;;;15.30;99.00;;;;;;5048850;28;20056;-71
2024/01/22 05:24:40;;;;;;;68.97;61.40;;;15.70;99.90;;;;;;5048965;28;20485;-71
2024/01/22 05:27:08;;;;;;;69.60;62.55;;;15.80;37.20;;;;;;5055830;28;20564;-70
2024/01/22 05:29:33;;;;;;;72.97;65.47;;;15.70;29.30;;;;;;5031601;28;20052;-70
2024/01/22 05:31:59;;;;;;;67.38;56.53;;;15.70;33.90;;;;;;5031653;28;20056;-70
2024/01/22 05:34:24;;;;;;;60.72;51.80;;;14.90;21.30;;;;;;5048616;28;20519;-70
2024/01/22 05:36:50;;;;;;;62.10;52.58;;;15.10;1.00;;;;;;5064922;28;20052;-70
2024/01/22 05:39:15;;;;;;;78.85;70.78;;;14.90;21.50;;;;;;5047185;28;20054;-70
2024/01/22 05:41:41;;;;;;;68.47;61.20;;;14.60;1.00;;;;;;5017379;28;20383;-70
2024/01/22 05:44:07;;;;;;;74.18;66.43;;;15.40;1.00;;;;;;5028274;28;20041;-70
2024/01/22 05:46:33;;;;;;;72.40;64.63;;;15.40;1.00;;;;;;5028216;28;20087;-70
2024/01/22 05:48:59;;;;;;;71.50;63.63;;;15.00;1.00;;;;;;5064422;28;20646;-70
2024/01/22 05:51:25;;;;;;;66.18;59.10;;;15.40;1.00;;;;;;5048094;28;20044;-70
2024/01/22 05:53:51;;;;;;;62.78;56.03;;;14.50;3.50;;;;;;5028548;28;20044;-70
2024/01/22 05:56:27;;;;;;;68.30;55.03;;;15.30;85.60;;;;;;5033295;28;20044;-70
2024/01/22 05:58:53;;;;;;;;;;;14.50;77.20;;;;;;5065440;28;20044;-70
2024/01/22 06:01:26;;;;;;;93.75;83.72;;;14.60;99.90;;;;;;5048094;28;20129;-70
2024/01/22 06:03:52;;;;;;;73.20;58.85;;;15.40;99.90;;;;;;5026616;28;20037;-70
2024/01/22 06:06:18;;;;;;;87.13;71.22;;;14.60;95.50;;;;;;5028337;28;20151;-70
2024/01/22 06:08:46;;;;;;;82.10;67.47;;;15.00;99.90;;;;;;5028015;28;20041;-70
2024/01/22 06:11:12;;;;;;;100.78;64.93;;;14.60;99.90;;;;;;5055753;28;20036;-70
2024/01/22 06:13:39;;;;;;;89.95;57.88;;;15.30;99.90;;;;;;5040323;28;20045;-70
2024/01/22 06:16:14;;;;;;;88.03;60.05;;;14.70;99.90;;;;;;5041671;28;20041;-70
2024/01/22 06:18:42;;;;;;;97.97;57.67;;;15.10;65.10;;;;;;5035580;28;20051;-70
2024/01/22 06:21:08;;;;;;;92.80;59.15;;;14.80;7.90;;;;;;5047489;28;20511;-70
2024/01/22 06:23:34;;;;;;;91.50;67.38;;;14.20;27.50;;;;;;5048169;28;20052;-70
2024/01/22 06:26:00;;;;;;;92.68;57.67;;;14.30;46.10;;;;;;5034769;28;20044;-70
2024/01/22 06:28:27;;;;;;;98.43;61.70;;;14.60;99.90;;;;;;5041536;28;20044;-70
2024/01/22 06:30:54;;;;;;;100.70;61.55;;;14.80;99.90;;;;;;5040660;28;20125;-70
2024/01/22 06:33:20;;;;;;;104.95;62.13;;;14.90;99.90;;;;;;5047816;28;20051;-70
2024/01/22 06:35:46;;;;;;;102.40;61.95;;;14.90;99.90;;;;;;5035016;28;20498;-70
2024/01/22 06:38:13;;;;;;;100.85;59.78;;;15.50;99.90;;;;;;5014720;28;20543;-70
2024/01/22 06:40:39;;;;;;;97.70;64.85;;;15.50;92.40;;;;;;5021852;28;20047;-70
2024/01/22 06:43:05;;;;;;;114.28;68.30;;;15.60;1.00;;;;;;5020824;28;20124;-71
2024/01/22 06:45:31;;;;;;;102.57;62.72;;;14.80;1.00;;;;;;5023478;28;20124;-71
2024/01/22 06:47:56;;;;;;;117.65;73.80;;;15.30;1.00;;;;;;5022551;28;20049;-70
2024/01/22 06:50:23;;;;;;;115.50;65.28;;;14.90;1.00;;;;;;5023381;28;20046;-70
2024/01/22 06:52:49;;;;;;;116.93;60.22;;;15.30;1.00;;;;;;5020799;28;20042;-71
2024/01/22 06:55:15;;;;;;;117.18;63.92;;;14.60;1.00;;;;;;5025112;28;20350;-70
2024/01/22 06:57:41;;;;;;;126.30;68.35;;;15.00;1.00;;;;;;5023194;28;20133;-70
2024/01/22 07:00:08;;;;;;;118.90;64.93;;;14.80;1.00;;;;;;5023279;28;20656;-70
2024/01/22 07:02:42;;;;;;;126.78;62.50;;;14.30;1.00;;;;;;5024250;28;20080;-70
2024/01/22 07:05:08;;;;;;;138.63;63.92;;;14.10;1.00;;;;;;5023316;28;20120;-70
2024/01/22 07:07:35;;;;;;;122.38;65.38;;;14.50;48.60;;;;;;5022246;28;20073;-71
2024/01/22 07:10:01;;;;;;;135.65;64.63;;;14.80;35.20;;;;;;5023498;28;20079;-70
2024/01/22 07:12:29;;;;;;;143.05;67.65;;;14.80;41.40;;;;;;5022380;28;20042;-69
2024/01/22 07:14:55;;;;;;;122.70;66.22;;;14.60;1.00;;;;;;5025266;28;20073;-69
2024/01/22 07:17:20;;;;;;;131.65;64.20;;;15.20;1.00;;;;;;5026763;28;20065;-70
2024/01/22 07:19:46;;;;;;;116.40;65.63;;;15.10;1.00;;;;;;5028698;28;20087;-69
2024/01/22 07:22:12;;;;;;;119.00;61.13;;;14.20;1.00;;;;;;5028833;28;20759;-70
2024/01/22 07:24:37;;;;;;;108.70;59.15;;;14.10;1.00;;;;;;5027962;28;20045;-71
2024/01/22 07:27:03;;;;;;;143.93;61.97;;;14.20;1.00;;;;;;5029163;28;20041;-69
2024/01/22 07:29:30;;;;;;;136.07;60.80;;;14.10;1.00;;;;;;5028391;28;20537;-69
2024/01/22 07:31:56;;;;;;;134.82;60.78;;;15.00;74.80;;;;;;5019027;28;20068;-69
2024/01/22 07:34:22;;;;;;;116.68;58.60;;;15.10;99.90;;;;;;5023803;28;20419;-69
2024/01/22 07:36:47;;;;;;;104.15;57.38;;;15.30;99.90;;;;;;5019860;28;20051;-69
2024/01/22 07:39:13;;;;;;;104.20;57.20;;;15.20;99.90;;;;;;5032754;28;20169;-70
2024/01/22 07:41:38;;;;;;;91.82;60.45;;;15.30;99.90;;;;;;5038551;28;20549;-69
2024/01/22 07:44:05;;;;;;;93.43;63.47;;;14.80;97.80;;;;;;5039778;28;21053;-71
2024/01/22 07:46:31;;;;;;;102.60;62.85;;;15.10;1.00;;;;;;5029718;28;20052;-71
2024/01/22 07:48:57;;;;;;;107.50;60.15;;;14.90;99.90;;;;;;5045259;28;20045;-71
2024/01/22 07:51:23;;;;;;;104.88;58.13;;;14.00;99.90;;;;;;5048524;28;20045;-72
2024/01/22 07:53:48;;;;;;;107.07;59.35;;;13.70;99.90;;;;;;5046664;28;20127;-72
2024/01/22 07:56:14;;;;;;;118.00;58.53;;;14.20;99.90;;;;;;5049076;28;20549;-73
2024/01/22 07:58:39;;;;;;;121.28;59.17;;;14.00;99.90;;;;;;5046872;28;20072;-73
2024/01/22 08:01:06;;;;;;;77.03;47.28;;;13.90;99.90;;;;;;5045724;28;20722;-71
2024/01/22 08:03:32;;;;;;;111.20;57.55;;;13.80;99.90;;;;;;5041046;28;20055;-72
2024/01/22 08:05:58;;;;;;;113.93;57.28;;;13.00;99.90;;;;;;5039828;28;20045;-73
2024/01/22 08:08:25;;;;;;;108.90;59.58;;;13.60;99.90;;;;;;5046266;28;20083;-70
2024/01/22 08:10:51;;;;;;;114.28;59.63;;;14.10;1.00;;;;;;5043180;28;20045;-71
2024/01/22 08:13:17;;;;;;;85.72;48.70;;;14.30;1.00;;;;;;5042858;28;20579;-72
2024/01/22 08:15:43;;;;;;;98.55;60.38;;;13.60;1.00;;;;;;5041820;28;20044;-69
2024/01/22 08:18:09;;;;;;;108.55;60.78;;;14.40;1.00;;;;;;5039476;28;20140;-69
2024/01/22 08:20:35;;;;;;;123.40;57.03;;;14.10;1.00;;;;;;5042222;28;20434;-70
2024/01/22 08:23:00;;;;;;;148.48;64.85;;;13.20;1.00;;;;;;5043471;28;20055;-72
2024/01/22 08:25:28;;;;;;;144.50;62.15;;;13.90;1.00;;;;;;5045149;28;20043;-71
2024/01/22 08:27:55;;;;;;;153.88;62.58;;;13.40;1.00;;;;;;5044650;28;20388;-69
2024/01/22 08:30:21;;;;;;;152.65;61.47;;;13.20;1.00;;;;;;5040318;28;20040;-70
2024/01/22 08:32:47;;;;;;;155.07;62.13;;;13.30;1.00;;;;;;5040534;28;20040;-71
2024/01/22 08:35:13;;;;;;;164.05;64.63;;;13.90;1.00;;;;;;5044155;28;20037;-72
2024/01/22 08:37:39;;;;;;;159.80;63.17;;;13.30;99.90;;;;;;5027195;28;20122;-72
2024/01/22 08:40:06;;;;;;;107.28;52.97;;;14.10;99.90;;;;;;5044143;28;20049;-71
2024/01/22 08:42:35;;;;;;;172.25;65.95;;;13.50;99.90;;;;;;5036854;28;20114;-72
2024/01/22 08:45:01;;;;;;;167.05;67.07;;;13.90;99.90;;;;;;5038834;28;20049;-70
2024/01/22 08:47:26;;;;;;;164.25;69.00;;;14.20;99.90;;;;;;5039703;28;20045;-70
2024/01/22 08:49:52;;;;;;;159.73;67.13;;;13.50;90.30;;;;;;5039750;28;20068;-72
2024/01/22 08:52:18;;;;;;;151.05;67.45;;;13.40;17.70;;;;;;5040140;28;20060;-71
2024/01/22 08:54:43;;;;;;;161.45;68.85;;;14.10;1.00;;;;;;5044420;28;20601;-71
2024/01/22 08:57:09;;;;;;;158.90;69.75;;;13.90;1.00;;;;;;5043558;28;20503;-71
2024/01/22 08:59:35;;;;;;;159.13;72.60;;;13.50;66.20;;;;;;5044074;28;20029;-72
2024/01/22 09:02:00;;;;;;;157.32;69.45;;;14.20;99.90;;;;;;5044333;28;20048;-78
2024/01/22 09:04:26;;;;;;;148.95;65.32;;;13.90;96.20;;;;;;5042147;28;20487;-73
2024/01/22 09:06:51;;;;;;;160.68;64.18;;;14.70;27.80;;;;;;5044272;28;20524;-74
2024/01/22 09:09:17;;;;;;;143.40;62.42;;;14.10;2.40;;;;;;5042943;28;20560;-74
2024/01/22 09:11:43;;;;;;;154.77;66.05;;;14.40;1.00;;;;;;5042154;28;20075;-74
2024/01/22 09:14:08;;;;;;;140.85;66.05;;;13.80;1.00;;;;;;5041869;28;20037;-74
2024/01/22 09:16:34;;;;;;;138.60;63.17;;;13.60;1.00;;;;;;5026426;28;20056;-74
2024/01/22 09:18:59;;;;;;;155.18;65.00;;;13.80;1.00;;;;;;5027297;28;20047;-73
2024/01/22 09:21:25;;;;;;;162.32;68.97;;;13.90;1.00;;;;;;5044024;28;20127;-73
2024/01/22 09:23:51;;;;;;;141.23;63.30;;;13.90;1.00;;;;;;5042570;28;20037;-77
2024/01/22 09:26:16;;;;;;;136.55;65.53;;;14.60;1.00;;;;;;5042176;28;20043;-70
2024/01/22 09:28:42;;;;;;;149.52;67.28;;;14.50;1.00;;;;;;5044222;28;20144;-72
2024/01/22 09:31:07;;;;;;;146.45;64.97;;;14.80;1.00;;;;;;5044115;28;20075;-70
2024/01/22 09:33:33;;;;;;;149.10;68.38;;;14.30;1.00;;;;;;5043010;28;20094;-72
2024/01/22 09:36:01;;;;;;;130.88;61.65;;;14.60;1.00;;;;;;5044732;28;20045;-72
2024/01/22 09:38:27;;;;;;;141.93;64.22;;;14.90;1.00;;;;;;5046414;28;20113;-72
2024/01/22 09:40:54;;;;;;;132.20;64.60;;;14.80;1.00;;;;;;5048814;28;20048;-74
2024/01/22 09:43:20;;;;;;;130.32;62.67;;;14.20;99.90;;;;;;5062955;28;20515;-72
2024/01/22 09:45:49;;;;;;;133.02;61.78;;;14.20;99.90;;;;;;5046597;28;20456;-72
2024/01/22 09:48:15;;;;;;;121.00;59.90;;;14.30;99.90;;;;;;5042602;28;20059;-72
2024/01/22 09:50:41;;;;;;;111.78;56.08;;;14.30;99.90;;;;;;5045320;28;20765;-72
2024/01/22 09:53:09;;;;;;;102.13;56.30;;;14.20;99.90;;;;;;5046321;28;20121;-72
2024/01/22 09:55:42;;;;;;;95.30;53.10;;;14.30;99.90;;;;;;5028743;28;20097;-73
2024/01/22 09:58:09;;;;;;;93.55;49.55;;;15.10;99.90;;;;;;5046894;28;20564;-73
2024/01/22 10:00:37;;;;;;;88.38;44.92;;;15.00;88.50;;;;;;5045445;28;20486;-73
2024/01/22 10:03:03;;;;;;;75.68;42.03;;;15.10;18.40;;;;;;5044624;28;20079;-70
2024/01/22 10:05:32;;;;;;;68.60;41.60;;;14.70;1.00;;;;;;5043580;28;20458;-69
2024/01/22 10:07:58;;;;;;;78.45;38.60;;;15.20;1.00;;;;;;5045238;28;20123;-71
2024/01/22 10:10:23;;;;;;;80.88;39.17;;;15.30;1.00;;;;;;5029845;28;20123;-69
2024/01/22 10:13:04;;;;;;;71.78;40.45;;;15.40;1.00;;;;;;5044276;28;20059;-69
2024/01/22 10:15:33;;;;;;;80.75;43.45;;;15.30;99.90;;;;;;5043827;28;20113;-69
2024/01/22 10:18:13;;;;;;;86.30;46.75;;;15.20;99.90;;;;;;5044533;28;20072;-69
2024/01/22 10:20:40;;;;;;;93.78;48.08;;;14.80;99.90;;;;;;5044346;28;20056;-69
2024/01/22 10:23:06;;;;;;;99.82;52.55;;;15.10;99.90;;;;;;5044125;28;20596;-69
2024/01/22 10:25:31;;;;;;;106.22;50.53;;;15.50;99.90;;;;;;5029211;28;20040;-69
2024/01/22 10:28:17;;;;;;;104.38;54.75;;;15.10;99.90;;;;;;5047665;28;20090;-68
2024/01/22 10:30:44;;;;;;;108.00;57.75;;;14.80;99.90;;;;;;5043211;28;20040;-69
2024/01/22 10:33:12;;;;;;;104.78;52.22;;;15.30;99.90;;;;;;5023691;28;20504;-68
2024/01/22 10:35:38;;;;;;;101.22;53.90;;;14.70;99.90;;;;;;5041553;28;20771;-69
2024/01/22 10:38:08;;;;;;;101.65;49.35;;;14.70;99.90;;;;;;5056781;28;20053;-69
2024/01/22 10:40:34;;;;;;;95.68;52.22;;;14.80;99.90;;;;;;5041563;28;20036;-69
2024/01/22 10:43:16;;;;;;;105.45;53.78;;;14.60;99.90;;;;;;5060361;28;20036;-69
2024/01/22 10:45:44;;;;;;;92.68;51.65;;;14.70;99.90;;;;;;5045190;28;20804;-68
2024/01/22 10:48:10;;;;;;;97.07;48.33;;;14.70;99.90;;;;;;5046539;28;20072;-68
2024/01/22 10:50:37;;;;;;;95.55;49.58;;;15.20;99.90;;;;;;5045152;28;20119;-70
2024/01/22 10:53:03;;;;;;;101.88;50.58;;;14.80;99.90;;;;;;5061116;28;20044;-69
2024/01/22 10:55:29;;;;;;;97.80;51.65;;;15.40;99.90;;;;;;5045047;28;20830;-68
2024/01/22 10:57:57;;;;;;;105.03;51.10;;;16.10;99.90;;;;;;5061941;28;20090;-68
2024/01/22 11:00:23;;;;;;;106.40;48.75;;;15.30;99.90;;;;;;5046250;28;20048;-69
2024/01/22 11:02:54;;;;;;;97.47;51.50;;;14.90;99.90;;;;;;5061266;28;20043;-70
2024/01/22 11:05:21;;;;;;;93.07;51.55;;;14.90;99.90;;;;;;5044040;28;20040;-69
2024/01/22 11:07:49;;;;;;;105.95;55.53;;;14.90;99.90;;;;;;5044340;28;20040;-69
2024/01/22 11:10:15;;;;;;;96.38;52.50;;;14.90;99.90;;;;;;5043688;28;20055;-69
2024/01/22 11:12:51;;;;;;;94.32;46.95;;;15.40;99.90;;;;;;5043690;28;20044;-69
2024/01/22 11:15:16;;;;;;;90.43;49.15;;;15.00;99.90;;;;;;5041999;28;20101;-69
2024/01/22 11:17:43;;;;;;;87.38;47.53;;;15.40;99.90;;;;;;5045619;28;20063;-72
2024/01/22 11:20:15;;;;;;;83.82;45.17;;;15.20;99.90;;;;;;5044181;28;20085;-72
2024/01/22 11:22:41;;;;;;;89.43;45.75;;;15.00;99.90;;;;;;5044103;28;20055;-71
2024/01/22 11:25:12;;;;;;;82.53;42.20;;;15.10;99.90;;;;;;5047669;28;20044;-72
2024/01/22 11:27:42;;;;;;;80.15;45.08;;;15.60;99.90;;;;;;5028593;28;20139;-73
2024/01/22 11:30:20;;;;;;;83.53;44.90;;;15.40;99.90;;;;;;5042243;28;20631;-72
2024/01/22 11:32:47;;;;;;;77.82;46.17;;;15.40;99.90;;;;;;5018309;28;20048;-72
2024/01/22 11:35:12;;;;;;;88.40;47.95;;;15.60;99.90;;;;;;5021245;28;20083;-72
2024/01/22 11:37:38;;;;;;;82.22;43.47;;;15.10;99.90;;;;;;5039496;28;20147;-71
2024/01/22 11:40:11;;;;;;;89.00;45.95;;;15.20;99.90;;;;;;5042590;28;20567;-70
2024/01/22 11:42:36;;;;;;;93.30;48.28;;;15.20;99.90;;;;;;5042441;28;20036;-73
2024/01/22 11:45:15;;;;;;;75.88;44.25;;;15.50;99.90;;;;;;5044919;28;20052;-71
2024/01/22 11:47:41;;;;;;;88.43;47.38;;;15.00;99.90;;;;;;5041934;28;20037;-71
2024/01/22 11:50:08;;;;;;;81.90;41.17;;;15.00;99.90;;;;;;5043461;28;20044;-72
2024/01/22 11:52:35;;;;;;;84.97;47.42;;;15.00;99.90;;;;;;5043934;28;20171;-71
2024/01/22 11:55:03;;;;;;;91.95;46.28;;;15.40;99.90;;;;;;5044496;28;20079;-71
2024/01/22 11:57:35;;;;;;;76.45;40.53;;;14.90;99.90;;;;;;5044639;28;20052;-69
2024/01/22 12:00:04;;;;;;;89.75;46.38;;;15.30;99.90;;;;;;5045062;28;20409;-71
2024/01/22 12:02:29;;;;;;;91.45;48.28;;;15.00;99.90;;;;;;5045892;28;20513;-70
2024/01/22 12:05:00;;;;;;;82.10;45.85;;;15.00;99.90;;;;;;5047585;28;20040;-72
2024/01/22 12:07:39;;;;;;;72.80;41.42;;;15.30;99.90;;;;;;5061747;28;20550;-72
2024/01/22 12:10:26;;;;;;;79.97;42.42;;;15.10;99.90;;;;;;5029748;28;20040;-72
2024/01/22 12:12:55;;;;;;;84.57;46.15;;;14.90;99.90;;;;;;5047101;28;20061;-71
2024/01/22 12:15:23;;;;;;;89.38;47.88;;;14.90;99.90;;;;;;5032174;28;20524;-72
2024/01/22 12:17:50;;;;;;;84.03;44.70;;;15.30;99.90;;;;;;5050645;28;20049;-72
2024/01/22 12:20:16;;;;;;;82.72;48.97;;;14.70;99.90;;;;;;5050408;28;20055;-71
2024/01/22 12:22:42;;;;;;;89.25;48.13;;;14.90;99.90;;;;;;5045896;28;20039;-69
2024/01/22 12:25:10;;;;;;;93.10;50.28;;;15.20;99.90;;;;;;5044624;28;20044;-68